Time;durP1;ratioP1;P1;durP2;ratioP2;P2;SDS_P1;SDS_P2;PMS_P1;PMS_P2;Temp;Humidity;BMP_temperature;BMP_pressure;BME280_temperature;BME280_humidity;BME280_pressure;Samples;Min_cycle;Max_cycle;Signal;HPM_P1;HPM_P2
2022/01/10 00:02:23;;;;;;;17.33;9.57;;;5.80;99.90;;;;;;5059002;28;20181;-42
2022/01/10 00:04:48;;;;;;;12.27;9.50;;;6.20;99.90;;;;;;5067144;28;20467;-44
2022/01/10 00:07:14;;;;;;;13.07;9.47;;;6.30;99.90;;;;;;5067604;28;20199;-41
2022/01/10 00:09:40;;;;;;;18.57;9.63;;;6.10;99.90;;;;;;5066960;28;20446;-40
2022/01/10 00:12:06;;;;;;;13.83;8.87;;;6.30;99.90;;;;;;5067932;28;20273;-42
2022/01/10 00:14:31;;;;;;;17.17;10.70;;;6.40;99.90;;;;;;5079451;28;20555;-43
2022/01/10 00:16:57;;;;;;;14.07;9.67;;;6.40;99.90;;;;;;5074937;28;20432;-43
2022/01/10 00:19:24;;;;;;;15.53;9.80;;;6.30;99.90;;;;;;5064843;28;20264;-45
2022/01/10 00:21:49;;;;;;;13.60;9.67;;;6.10;99.90;;;;;;5066913;28;20663;-46
2022/01/10 00:24:15;;;;;;;16.10;9.87;;;6.30;99.90;;;;;;5067172;28;20419;-42
2022/01/10 00:26:41;;;;;;;18.83;11.43;;;6.40;99.90;;;;;;5067462;28;20189;-44
2022/01/10 00:29:06;;;;;;;13.60;9.27;;;6.30;99.90;;;;;;5067550;28;20189;-45
2022/01/10 00:31:32;;;;;;;16.13;9.87;;;5.90;99.90;;;;;;5063331;28;20680;-44
2022/01/10 00:33:58;;;;;;;24.37;10.20;;;6.10;99.90;;;;;;5058618;28;20169;-43
2022/01/10 00:36:25;;;;;;;15.30;9.93;;;5.90;99.90;;;;;;5067270;28;20180;-46
2022/01/10 00:38:51;;;;;;;16.40;11.30;;;5.80;99.90;;;;;;5067251;28;20199;-42
2022/01/10 00:41:16;;;;;;;14.27;10.10;;;6.10;99.90;;;;;;5067229;28;20918;-41
2022/01/10 00:43:46;;;;;;;17.70;11.23;;;5.80;99.90;;;;;;5066273;28;20933;-42
2022/01/10 00:46:12;;;;;;;15.23;10.87;;;5.80;99.90;;;;;;5067721;28;20243;-41
2022/01/10 00:48:38;;;;;;;16.50;10.73;;;5.60;99.90;;;;;;5051757;28;20438;-41
2022/01/10 00:51:04;;;;;;;16.43;9.83;;;5.60;99.90;;;;;;5066258;28;20446;-41
2022/01/10 00:53:30;;;;;;;16.90;10.23;;;5.50;99.90;;;;;;5066917;28;20213;-41
2022/01/10 00:55:55;;;;;;;17.67;10.77;;;5.40;99.90;;;;;;5067016;28;20183;-41
2022/01/10 00:58:21;;;;;;;19.87;10.70;;;5.50;99.90;;;;;;5067272;28;20419;-44
2022/01/10 01:00:47;;;;;;;15.40;10.33;;;5.50;99.90;;;;;;5065206;28;20188;-41
2022/01/10 01:03:13;;;;;;;16.10;9.90;;;5.40;99.90;;;;;;5056633;28;20197;-43
2022/01/10 01:05:41;;;;;;;15.13;10.40;;;5.00;99.90;;;;;;5066320;28;20423;-40
2022/01/10 01:08:09;;;;;;;14.60;9.77;;;5.30;99.90;;;;;;5066932;28;20518;-41
2022/01/10 01:15:56;;;;;;;12.93;9.83;;;5.00;99.90;;;;;;5054012;28;20948;-46
2022/01/10 01:18:58;;;;;;;14.53;10.43;;;4.90;99.90;;;;;;5057608;28;20420;-40
2022/01/10 01:24:03;;;;;;;16.83;11.17;;;4.70;99.90;;;;;;5056132;28;20435;-41
2022/01/10 01:26:31;;;;;;;18.03;11.17;;;4.80;99.90;;;;;;5066847;28;20468;-42
2022/01/10 01:28:57;;;;;;;16.97;10.93;;;4.60;99.90;;;;;;5066715;28;20469;-42
2022/01/10 01:31:23;;;;;;;13.90;11.33;;;4.70;99.90;;;;;;5066101;28;20855;-44
2022/01/10 01:33:48;;;;;;;14.53;10.73;;;4.60;99.90;;;;;;5056829;28;20502;-44
2022/01/10 01:36:17;;;;;;;14.83;10.63;;;4.70;99.90;;;;;;5063664;28;20419;-41
2022/01/10 01:38:42;;;;;;;26.03;10.40;;;4.50;99.90;;;;;;5066824;28;20280;-41
2022/01/10 01:41:50;;;;;;;17.67;11.20;;;4.60;99.90;;;;;;5065784;28;20507;-41
2022/01/10 01:43:58;;;;;;;16.77;11.57;;;4.60;99.90;;;;;;5056763;28;20706;-40
2022/01/10 01:46:24;;;;;;;18.60;11.00;;;4.80;99.90;;;;;;5066709;28;20693;-40
2022/01/10 01:48:52;;;;;;;19.40;11.27;;;4.80;99.90;;;;;;5054051;28;20435;-41
2022/01/10 01:51:19;;;;;;;22.73;12.60;;;4.70;99.90;;;;;;5066029;28;20457;-43
2022/01/10 01:53:46;;;;;;;16.27;10.70;;;4.40;99.90;;;;;;5066075;28;20561;-42
2022/01/10 01:56:13;;;;;;;19.80;12.50;;;4.50;99.90;;;;;;5066776;28;20471;-41
2022/01/10 01:58:41;;;;;;;15.60;10.90;;;4.50;99.90;;;;;;5066451;28;20415;-43
2022/01/10 02:01:10;;;;;;;17.07;10.47;;;4.20;99.90;;;;;;5066206;28;20427;-40
2022/01/10 02:03:41;;;;;;;17.20;10.23;;;4.50;99.90;;;;;;5057854;28;20444;-40
2022/01/10 02:06:08;;;;;;;17.63;11.67;;;4.50;99.90;;;;;;5070226;28;20428;-40
2022/01/10 02:08:35;;;;;;;18.47;11.43;;;4.50;99.90;;;;;;5069813;28;20452;-44
2022/01/10 02:11:04;;;;;;;19.53;11.13;;;4.30;99.90;;;;;;5069545;28;20518;-41
2022/01/10 02:13:30;;;;;;;18.60;12.00;;;4.40;99.90;;;;;;5072518;28;20464;-41
2022/01/10 02:16:06;;;;;;;17.77;11.50;;;4.30;99.90;;;;;;5090395;28;20422;-41
2022/01/10 02:18:33;;;;;;;16.60;11.47;;;4.50;99.90;;;;;;5067934;28;20311;-44
2022/01/10 02:21:02;;;;;;;18.10;11.90;;;4.20;99.90;;;;;;5069391;28;21036;-41
2022/01/10 02:23:28;;;;;;;20.70;11.90;;;4.30;99.90;;;;;;5069667;28;20423;-40
2022/01/10 02:25:55;;;;;;;16.80;11.33;;;4.40;99.90;;;;;;5069720;28;20427;-41
2022/01/10 02:28:21;;;;;;;20.63;12.43;;;4.60;99.90;;;;;;5069483;28;20428;-41
2022/01/10 02:30:52;;;;;;;16.57;11.10;;;4.50;99.90;;;;;;5069126;28;20435;-43
2022/01/10 02:33:17;;;;;;;17.73;12.33;;;4.20;99.90;;;;;;5063074;28;20470;-40
2022/01/10 02:36:14;;;;;;;21.37;11.90;;;4.10;99.90;;;;;;5069445;28;20877;-40
2022/01/10 02:38:30;;;;;;;18.03;11.10;;;4.10;99.90;;;;;;5067581;28;20417;-45
2022/01/10 02:40:57;;;;;;;16.17;12.63;;;4.00;99.90;;;;;;5068673;28;20415;-41
2022/01/10 02:43:23;;;;;;;19.60;12.23;;;4.20;99.90;;;;;;5067884;28;20455;-40
2022/01/10 02:45:48;;;;;;;21.10;12.00;;;4.00;99.90;;;;;;5068733;28;21000;-43
2022/01/10 02:48:14;;;;;;;16.50;11.67;;;3.90;99.90;;;;;;5059867;28;20182;-39
2022/01/10 02:50:40;;;;;;;23.90;14.13;;;4.20;99.90;;;;;;5068439;28;20193;-42
2022/01/10 02:53:05;;;;;;;21.13;12.20;;;4.30;99.90;;;;;;5069335;28;20725;-40
2022/01/10 02:55:31;;;;;;;22.90;13.53;;;4.30;99.90;;;;;;5069149;28;20189;-43
2022/01/10 02:57:57;;;;;;;21.33;13.67;;;4.10;99.90;;;;;;5069404;28;20304;-42
2022/01/10 03:00:25;;;;;;;22.23;12.27;;;4.00;99.90;;;;;;5068260;28;20177;-40
2022/01/10 03:02:53;;;;;;;19.63;12.03;;;4.20;99.90;;;;;;5064104;28;20432;-41
2022/01/10 03:05:21;;;;;;;18.70;12.60;;;4.10;99.90;;;;;;5065664;28;20755;-43
2022/01/10 03:07:49;;;;;;;22.80;13.00;;;4.20;99.90;;;;;;5069122;28;20933;-42
2022/01/10 03:10:15;;;;;;;18.63;12.90;;;4.30;99.90;;;;;;5068052;28;20432;-41
2022/01/10 03:12:41;;;;;;;22.37;13.20;;;4.10;99.90;;;;;;5068403;28;20576;-40
2022/01/10 03:15:08;;;;;;;18.77;12.50;;;4.20;99.90;;;;;;5083931;28;20255;-40
2022/01/10 03:17:35;;;;;;;20.53;12.30;;;4.30;99.90;;;;;;5083327;28;20180;-42
2022/01/10 03:20:03;;;;;;;18.80;12.73;;;4.10;99.90;;;;;;5056315;28;20423;-41
2022/01/10 03:22:28;;;;;;;24.03;13.40;;;4.10;99.90;;;;;;5068564;28;20431;-40
2022/01/10 03:24:55;;;;;;;19.20;11.90;;;4.10;99.90;;;;;;5068647;28;20411;-40
2022/01/10 03:27:20;;;;;;;24.73;13.33;;;4.00;99.90;;;;;;5068723;28;20654;-42
2022/01/10 03:29:46;;;;;;;19.23;12.60;;;3.80;99.90;;;;;;5067627;28;20740;-43
2022/01/10 03:32:12;;;;;;;19.07;11.97;;;4.10;99.90;;;;;;5068294;28;20599;-40
2022/01/10 03:34:39;;;;;;;16.97;11.80;;;3.70;99.90;;;;;;5053639;28;20284;-41
2022/01/10 03:37:06;;;;;;;18.70;11.40;;;3.70;99.90;;;;;;5068068;28;20422;-42
2022/01/10 03:39:32;;;;;;;30.73;11.50;;;3.70;99.90;;;;;;5068153;28;20805;-40
2022/01/10 03:41:58;;;;;;;17.63;12.40;;;3.90;99.90;;;;;;5067621;28;20427;-42
2022/01/10 03:44:24;;;;;;;23.27;12.43;;;3.90;99.90;;;;;;5066304;28;20518;-44
2022/01/10 03:46:50;;;;;;;19.67;11.30;;;3.60;99.90;;;;;;5068165;28;20581;-40
2022/01/10 03:49:16;;;;;;;18.63;11.63;;;3.50;99.90;;;;;;5059003;28;21012;-40
2022/01/10 03:51:42;;;;;;;17.27;12.00;;;3.40;99.90;;;;;;5067284;28;20188;-44
2022/01/10 03:54:08;;;;;;;20.33;11.87;;;3.60;99.90;;;;;;5068090;28;20197;-40
2022/01/10 03:56:34;;;;;;;31.20;12.97;;;3.40;99.90;;;;;;5068103;28;20439;-45
2022/01/10 03:59:00;;;;;;;18.50;13.00;;;3.30;99.90;;;;;;5067617;28;20241;-41
2022/01/10 04:01:26;;;;;;;22.73;12.10;;;3.50;99.90;;;;;;5067398;28;20526;-42
2022/01/10 04:03:52;;;;;;;20.30;12.70;;;3.60;99.90;;;;;;5059661;28;20181;-41
2022/01/10 04:06:18;;;;;;;21.07;12.10;;;3.40;99.90;;;;;;5064318;28;20506;-42
2022/01/10 04:08:44;;;;;;;17.30;12.33;;;3.40;99.90;;;;;;5067462;28;20457;-46
2022/01/10 04:11:10;;;;;;;21.73;11.50;;;3.50;99.90;;;;;;5067443;28;20428;-40
2022/01/10 04:13:36;;;;;;;23.07;13.20;;;3.60;99.90;;;;;;5071687;28;20265;-40
2022/01/10 04:16:02;;;;;;;21.10;12.90;;;3.50;99.90;;;;;;5088059;28;20438;-42
2022/01/10 04:18:28;;;;;;;18.90;12.90;;;3.60;99.90;;;;;;5074995;28;20186;-40
2022/01/10 04:20:53;;;;;;;22.63;12.47;;;3.50;99.90;;;;;;5062133;28;20746;-40
2022/01/10 04:23:19;;;;;;;22.13;12.20;;;3.40;99.90;;;;;;5066902;28;20200;-43
2022/01/10 04:25:45;;;;;;;16.67;10.87;;;3.30;99.90;;;;;;5066754;28;20189;-43
2022/01/10 04:28:11;;;;;;;22.73;12.87;;;3.40;99.90;;;;;;5067013;28;20465;-40
2022/01/10 04:30:37;;;;;;;24.10;14.40;;;3.10;99.90;;;;;;5066725;28;20415;-40
2022/01/10 04:33:03;;;;;;;22.10;14.23;;;3.00;99.90;;;;;;5064064;28;20427;-40
2022/01/10 04:35:30;;;;;;;18.73;12.00;;;3.20;99.90;;;;;;5062390;28;20937;-40
2022/01/10 04:37:56;;;;;;;19.50;12.90;;;3.20;99.90;;;;;;5066948;28;20941;-41
2022/01/10 04:40:27;;;;;;;24.50;14.33;;;3.10;99.90;;;;;;5066163;28;20654;-40
2022/01/10 04:42:53;;;;;;;23.87;13.53;;;3.00;99.90;;;;;;5065738;28;20423;-40
2022/01/10 04:45:19;;;;;;;21.67;12.60;;;2.90;99.90;;;;;;5067005;28;20427;-40
2022/01/10 04:47:45;;;;;;;20.67;13.20;;;3.00;99.90;;;;;;5067567;28;20781;-41
2022/01/10 04:52:51;;;;;;;21.27;14.27;;;3.00;99.90;;;;;;5066604;28;20207;-42
2022/01/10 04:55:18;;;;;;;20.40;13.30;;;3.20;99.90;;;;;;5066500;28;20407;-40
2022/01/10 04:57:44;;;;;;;21.60;14.03;;;3.30;99.90;;;;;;5066668;28;20520;-42
2022/01/10 05:00:13;;;;;;;19.57;13.70;;;3.30;99.90;;;;;;5065811;28;20427;-40
2022/01/10 05:02:41;;;;;;;22.87;14.10;;;3.20;99.90;;;;;;5066869;28;20625;-42
2022/01/10 05:05:07;;;;;;;27.10;15.73;;;3.50;99.90;;;;;;5055196;28;20872;-41
2022/01/10 05:07:32;;;;;;;20.47;13.37;;;3.40;99.90;;;;;;5066277;28;20424;-40
2022/01/10 05:09:58;;;;;;;22.67;13.47;;;3.50;99.90;;;;;;5065809;28;20438;-41
2022/01/10 05:12:26;;;;;;;23.63;15.10;;;3.60;99.90;;;;;;5066712;28;20295;-42
2022/01/10 05:14:52;;;;;;;24.30;13.37;;;3.60;99.90;;;;;;5081461;28;20196;-42
2022/01/10 05:17:20;;;;;;;24.03;13.97;;;3.50;99.90;;;;;;5086700;28;20482;-44
2022/01/10 05:19:46;;;;;;;21.70;13.93;;;3.70;99.90;;;;;;5060499;28;20489;-40
2022/01/10 05:22:11;;;;;;;23.50;13.83;;;3.50;99.90;;;;;;5065834;28;20804;-40
2022/01/10 05:24:37;;;;;;;21.30;13.60;;;3.50;99.90;;;;;;5066103;28;20529;-42
2022/01/10 05:27:03;;;;;;;20.60;14.20;;;3.40;99.90;;;;;;5066339;28;20193;-41
2022/01/10 05:29:29;;;;;;;23.73;15.87;;;3.50;99.90;;;;;;5066235;28;20292;-42
2022/01/10 05:31:54;;;;;;;22.33;14.73;;;3.40;99.90;;;;;;5065408;28;20898;-41
2022/01/10 05:34:20;;;;;;;23.87;15.07;;;3.50;99.90;;;;;;5057256;28;20181;-40
2022/01/10 05:36:46;;;;;;;26.47;14.27;;;3.20;99.90;;;;;;5067112;28;20653;-41
2022/01/10 05:39:11;;;;;;;28.13;15.70;;;3.40;99.90;;;;;;5070224;28;20188;-42
2022/01/10 05:41:37;;;;;;;24.50;14.23;;;3.50;99.90;;;;;;5069535;28;20276;-40
2022/01/10 05:44:04;;;;;;;25.87;14.33;;;3.20;99.90;;;;;;5068954;28;20199;-41
2022/01/10 05:46:31;;;;;;;29.67;14.90;;;3.20;99.90;;;;;;5067870;28;20193;-40
2022/01/10 05:49:01;;;;;;;22.43;13.87;;;3.30;99.90;;;;;;5063323;28;20434;-41
2022/01/10 05:51:34;;;;;;;19.80;12.80;;;3.40;99.90;;;;;;5058992;28;20428;-41
2022/01/10 05:54:04;;;;;;;21.97;14.00;;;3.20;99.90;;;;;;5069508;28;20971;-42
2022/01/10 05:56:29;;;;;;;20.37;13.33;;;3.10;99.90;;;;;;5069712;28;20458;-40
2022/01/10 05:58:55;;;;;;;24.77;15.20;;;3.10;99.90;;;;;;5069636;28;20419;-42
2022/01/10 06:01:21;;;;;;;18.93;12.60;;;3.00;99.90;;;;;;5069021;28;20782;-40
2022/01/10 06:03:47;;;;;;;18.37;12.77;;;3.20;99.90;;;;;;5065095;28;20194;-40
2022/01/10 06:06:13;;;;;;;20.27;14.53;;;3.20;99.90;;;;;;5060481;28;20915;-40
2022/01/10 06:08:38;;;;;;;26.30;15.70;;;3.20;99.90;;;;;;5069002;28;20230;-42
2022/01/10 06:11:04;;;;;;;25.47;15.70;;;3.10;99.90;;;;;;5067658;28;20215;-42
2022/01/10 06:13:30;;;;;;;29.27;14.60;;;3.10;99.90;;;;;;5072257;28;20223;-45
2022/01/10 06:15:56;;;;;;;27.97;14.90;;;3.20;99.90;;;;;;5089863;28;20214;-42
2022/01/10 06:18:21;;;;;;;23.70;14.27;;;3.20;99.90;;;;;;5089022;28;20567;-40
2022/01/10 06:20:47;;;;;;;21.57;13.43;;;3.20;99.90;;;;;;5059937;28;20493;-40
2022/01/10 06:23:13;;;;;;;20.83;15.47;;;3.00;99.90;;;;;;5068932;28;20187;-41
2022/01/10 06:25:40;;;;;;;23.40;14.90;;;3.20;99.90;;;;;;5069275;28;20193;-40
2022/01/10 06:28:07;;;;;;;23.40;13.90;;;2.90;99.90;;;;;;5069308;28;20427;-40
2022/01/10 06:30:33;;;;;;;23.17;14.40;;;3.10;99.90;;;;;;5067910;28;20485;-42
2022/01/10 06:32:58;;;;;;;21.63;14.40;;;3.30;99.90;;;;;;5068716;28;20459;-40
2022/01/10 06:35:24;;;;;;;22.13;14.33;;;2.90;99.90;;;;;;5056520;28;20240;-40
2022/01/10 06:37:51;;;;;;;22.73;15.07;;;2.90;99.90;;;;;;5069006;28;20260;-40
2022/01/10 06:40:17;;;;;;;26.63;14.23;;;3.20;99.90;;;;;;5068490;28;20455;-41
2022/01/10 06:42:43;;;;;;;28.63;14.60;;;3.10;99.90;;;;;;5068893;28;20905;-40
2022/01/10 06:45:10;;;;;;;27.97;14.07;;;3.00;99.90;;;;;;5063557;28;20438;-40
2022/01/10 06:47:36;;;;;;;21.27;13.80;;;2.90;99.90;;;;;;5067311;28;20869;-40
2022/01/10 06:50:04;;;;;;;21.10;14.00;;;3.30;99.90;;;;;;5061608;28;20813;-41
2022/01/10 06:52:30;;;;;;;20.87;14.30;;;3.00;99.90;;;;;;5066877;28;20475;-42
2022/01/10 06:54:55;;;;;;;22.47;14.00;;;2.90;99.90;;;;;;5066882;28;20546;-40
2022/01/10 06:57:21;;;;;;;29.07;14.93;;;2.90;99.90;;;;;;5064681;28;20663;-40
2022/01/10 06:59:47;;;;;;;21.20;14.93;;;3.00;99.90;;;;;;5066152;28;20268;-41
2022/01/10 07:02:12;;;;;;;25.03;15.47;;;3.00;99.90;;;;;;5072455;28;20184;-40
2022/01/10 07:04:38;;;;;;;21.57;14.07;;;3.00;99.90;;;;;;5076214;28;20220;-40
2022/01/10 07:07:05;;;;;;;24.43;15.10;;;3.00;99.90;;;;;;5066993;28;20192;-39
2022/01/10 07:09:31;;;;;;;23.67;14.23;;;3.00;99.90;;;;;;5068422;28;20197;-40
2022/01/10 07:11:57;;;;;;;23.47;14.20;;;3.30;99.90;;;;;;5067767;28;20482;-41
2022/01/10 07:14:23;;;;;;;22.00;15.10;;;3.00;99.90;;;;;;5079086;28;20518;-41
2022/01/10 07:16:50;;;;;;;24.93;16.17;;;3.30;99.90;;;;;;5088119;28;20198;-40
2022/01/10 07:19:17;;;;;;;21.03;15.63;;;3.40;99.90;;;;;;5063899;28;20521;-40
2022/01/10 07:21:43;;;;;;;27.97;17.10;;;3.40;99.90;;;;;;5062643;28;20446;-44
2022/01/10 07:24:09;;;;;;;25.57;16.50;;;3.50;99.90;;;;;;5067149;28;20427;-41
2022/01/10 07:26:35;;;;;;;19.83;13.83;;;3.60;99.90;;;;;;5066255;28;20717;-43
2022/01/10 07:29:03;;;;;;;28.83;16.23;;;3.60;99.90;;;;;;5066315;28;20939;-41
2022/01/10 07:31:29;;;;;;;23.90;15.57;;;3.20;99.90;;;;;;5065605;28;20882;-41
2022/01/10 07:33:57;;;;;;;25.60;15.37;;;3.40;99.90;;;;;;5065887;28;20477;-41
2022/01/10 07:36:23;;;;;;;25.60;16.67;;;3.50;99.90;;;;;;5059499;28;20427;-40
2022/01/10 07:38:49;;;;;;;20.00;13.07;;;3.60;99.90;;;;;;5067771;28;21259;-41
2022/01/10 07:41:15;;;;;;;25.43;15.30;;;3.70;99.90;;;;;;5067327;28;20447;-40
2022/01/10 07:43:41;;;;;;;24.77;13.60;;;3.90;99.90;;;;;;5066356;28;20447;-40
2022/01/10 07:46:08;;;;;;;21.83;14.30;;;3.80;99.90;;;;;;5067949;28;20857;-41
2022/01/10 07:48:36;;;;;;;26.67;16.00;;;3.60;99.90;;;;;;5067406;28;20510;-40
2022/01/10 07:51:03;;;;;;;20.13;14.70;;;3.60;99.90;;;;;;5056154;28;20454;-42
2022/01/10 07:53:29;;;;;;;28.37;15.80;;;3.60;99.90;;;;;;5067037;28;20463;-41
2022/01/10 07:55:55;;;;;;;25.57;14.87;;;3.60;99.90;;;;;;5067368;28;20498;-41
2022/01/10 07:58:21;;;;;;;20.90;14.80;;;3.40;99.90;;;;;;5066864;28;20506;-40
2022/01/10 08:00:46;;;;;;;23.37;14.50;;;3.40;99.90;;;;;;5066568;28;20184;-41
2022/01/10 08:03:12;;;;;;;28.50;15.53;;;3.50;99.90;;;;;;5067236;28;20431;-40
2022/01/10 08:05:39;;;;;;;29.10;16.00;;;3.60;99.90;;;;;;5059437;28;20238;-41
2022/01/10 08:08:05;;;;;;;21.93;13.90;;;3.60;99.90;;;;;;5067450;28;20972;-41
2022/01/10 08:10:30;;;;;;;27.80;17.57;;;3.70;99.90;;;;;;5068830;28;20420;-41
2022/01/10 08:12:56;;;;;;;20.30;14.43;;;3.60;99.90;;;;;;5065219;28;20482;-41
2022/01/10 08:15:22;;;;;;;28.20;16.30;;;3.40;99.90;;;;;;5065752;28;20408;-41
2022/01/10 08:17:48;;;;;;;22.37;14.50;;;3.60;99.90;;;;;;5065077;28;20538;-40
2022/01/10 08:20:14;;;;;;;24.73;15.60;;;3.40;99.90;;;;;;5063641;28;20687;-41
2022/01/10 08:22:40;;;;;;;25.70;15.73;;;3.30;99.90;;;;;;5066717;28;20801;-44
2022/01/10 08:25:07;;;;;;;22.80;14.97;;;3.60;99.90;;;;;;5067247;28;20428;-41
2022/01/10 08:27:34;;;;;;;25.77;15.30;;;3.50;99.90;;;;;;5066732;28;20196;-43
2022/01/10 08:30:01;;;;;;;23.90;15.37;;;3.10;99.90;;;;;;5065998;28;20515;-41
2022/01/10 08:32:27;;;;;;;25.47;15.03;;;3.10;99.90;;;;;;5066775;28;20451;-40
2022/01/10 08:34:52;;;;;;;25.00;15.63;;;3.20;99.90;;;;;;5061812;28;20914;-42
2022/01/10 08:37:18;;;;;;;21.60;14.57;;;3.10;99.90;;;;;;5060874;28;20264;-41
2022/01/10 08:39:49;;;;;;;26.00;15.50;;;3.30;99.90;;;;;;5070538;28;20185;-40
2022/01/10 08:42:16;;;;;;;27.20;16.60;;;3.10;99.90;;;;;;5066657;28;20255;-42
2022/01/10 08:44:43;;;;;;;27.00;15.40;;;3.20;99.90;;;;;;5064984;28;20426;-45
2022/01/10 08:47:09;;;;;;;26.93;15.63;;;3.40;99.90;;;;;;5068188;28;20416;-41
2022/01/10 08:49:35;;;;;;;20.80;15.07;;;3.20;99.90;;;;;;5066205;28;20438;-40
2022/01/10 08:52:00;;;;;;;23.50;15.77;;;3.20;99.90;;;;;;5062276;28;20419;-41
2022/01/10 08:54:26;;;;;;;29.60;15.80;;;3.40;99.90;;;;;;5066040;28;20169;-41
2022/01/10 08:56:52;;;;;;;25.07;14.93;;;3.80;99.90;;;;;;5066073;28;20439;-41
2022/01/10 08:59:19;;;;;;;30.30;16.33;;;3.90;99.90;;;;;;5067620;28;20719;-43
2022/01/10 09:01:46;;;;;;;23.30;16.20;;;3.60;99.90;;;;;;5066044;28;20408;-40
2022/01/10 09:04:16;;;;;;;27.03;15.67;;;4.00;99.90;;;;;;5059844;28;20460;-41
2022/01/10 09:06:46;;;;;;;32.50;17.33;;;4.00;99.90;;;;;;5055660;28;20424;-41
2022/01/10 09:09:13;;;;;;;28.70;18.00;;;4.20;99.90;;;;;;5065963;28;20908;-40
2022/01/10 09:11:39;;;;;;;25.90;16.00;;;4.30;99.90;;;;;;5068162;28;20473;-40
2022/01/10 09:14:06;;;;;;;30.47;17.27;;;4.70;99.90;;;;;;5070425;28;20466;-42
2022/01/10 09:16:32;;;;;;;23.97;16.70;;;4.90;99.90;;;;;;5070469;28;20431;-40
2022/01/10 09:18:58;;;;;;;32.57;17.23;;;5.10;99.90;;;;;;5070613;28;20415;-41
2022/01/10 09:21:24;;;;;;;23.23;15.40;;;5.20;99.90;;;;;;5059831;28;20213;-43
2022/01/10 09:23:50;;;;;;;27.57;16.23;;;5.40;99.90;;;;;;5069771;28;20450;-46
2022/01/10 09:26:15;;;;;;;27.90;17.63;;;5.80;99.90;;;;;;5069004;28;20834;-43
2022/01/10 09:28:43;;;;;;;28.60;16.87;;;5.80;99.90;;;;;;5070128;28;20189;-42
2022/01/10 09:31:10;;;;;;;29.27;16.03;;;6.20;99.90;;;;;;5069672;28;20675;-41
2022/01/10 09:33:36;;;;;;;25.40;16.07;;;6.30;99.90;;;;;;5069903;28;20466;-41
2022/01/10 09:36:02;;;;;;;28.30;17.50;;;6.60;99.90;;;;;;5064711;28;20921;-41
2022/01/10 09:38:27;;;;;;;28.13;14.67;;;6.80;99.90;;;;;;5069703;28;20457;-42
2022/01/10 09:40:53;;;;;;;25.03;15.67;;;6.70;99.90;;;;;;5069690;28;20419;-40
2022/01/10 09:43:20;;;;;;;28.50;15.77;;;7.20;99.90;;;;;;5068306;28;20192;-41
2022/01/10 09:45:46;;;;;;;32.37;16.97;;;7.20;99.90;;;;;;5069801;28;20454;-43
2022/01/10 09:48:12;;;;;;;28.33;16.97;;;7.70;99.90;;;;;;5069796;28;20812;-43
2022/01/10 09:50:38;;;;;;;26.27;15.57;;;7.90;99.90;;;;;;5063618;28;20435;-41
2022/01/10 09:53:04;;;;;;;30.97;15.93;;;7.90;99.90;;;;;;5066107;28;20584;-44
2022/01/10 09:55:32;;;;;;;25.83;16.67;;;8.10;99.90;;;;;;5069394;28;20185;-40
2022/01/10 09:57:59;;;;;;;28.37;14.30;;;8.40;99.90;;;;;;5069743;28;20500;-41
2022/01/10 10:00:24;;;;;;;25.57;15.20;;;8.30;99.90;;;;;;5068936;28;20418;-42
2022/01/10 10:02:50;;;;;;;26.50;14.10;;;8.40;99.90;;;;;;5069831;28;20429;-41
2022/01/10 10:05:18;;;;;;;20.90;13.53;;;8.30;99.90;;;;;;5059255;28;20193;-44
2022/01/10 10:07:44;;;;;;;31.23;15.23;;;8.00;99.90;;;;;;5061274;28;20189;-40
2022/01/10 10:10:13;;;;;;;24.97;14.47;;;8.10;99.90;;;;;;5068664;28;20944;-42
2022/01/10 10:12:41;;;;;;;24.30;13.33;;;8.20;99.90;;;;;;5069593;28;20454;-41
2022/01/10 10:15:09;;;;;;;31.20;16.30;;;8.10;99.90;;;;;;5075457;28;20479;-42
2022/01/10 10:17:37;;;;;;;26.63;14.30;;;8.50;99.90;;;;;;5089865;28;20414;-41
2022/01/10 10:20:08;;;;;;;27.43;15.80;;;8.50;99.90;;;;;;5088061;28;20432;-42
2022/01/10 10:22:34;;;;;;;24.47;13.83;;;9.30;99.90;;;;;;5060031;28;20427;-42
2022/01/10 10:25:00;;;;;;;27.07;14.47;;;9.70;99.90;;;;;;5069154;28;20714;-41
2022/01/10 10:27:26;;;;;;;28.40;14.33;;;9.90;99.90;;;;;;5069304;28;20427;-41
2022/01/10 10:29:52;;;;;;;21.27;13.17;;;10.00;99.90;;;;;;5068600;28;20720;-41
2022/01/10 10:32:28;;;;;;;22.23;14.20;;;10.50;99.90;;;;;;5069042;28;20266;-42
2022/01/10 10:34:57;;;;;;;22.63;14.03;;;10.10;99.90;;;;;;5069233;28;20423;-41
2022/01/10 10:37:23;;;;;;;25.07;13.83;;;10.00;99.90;;;;;;5063717;28;20814;-43
2022/01/10 10:39:48;;;;;;;23.83;13.40;;;9.60;99.90;;;;;;5068450;28;20469;-42
2022/01/10 10:42:16;;;;;;;27.20;13.73;;;9.60;99.90;;;;;;5069495;28;20193;-41
2022/01/10 10:44:43;;;;;;;26.87;13.80;;;9.00;99.90;;;;;;5067857;28;20220;-42
2022/01/10 10:47:13;;;;;;;24.07;13.83;;;8.70;99.90;;;;;;5068474;28;20458;-42
2022/01/10 10:49:44;;;;;;;24.40;14.50;;;8.50;99.90;;;;;;5068576;28;20408;-42
2022/01/10 10:52:11;;;;;;;23.67;14.70;;;8.50;99.90;;;;;;5054367;28;20513;-42
2022/01/10 10:54:39;;;;;;;21.20;14.50;;;8.40;99.90;;;;;;5068700;28;20825;-42
2022/01/10 10:57:06;;;;;;;23.00;12.97;;;8.70;99.90;;;;;;5068827;28;20481;-40
2022/01/10 10:59:36;;;;;;;24.83;14.00;;;9.50;99.90;;;;;;5067985;28;20419;-41
2022/01/10 11:02:03;;;;;;;23.50;13.60;;;9.60;99.90;;;;;;5068300;28;20424;-41
2022/01/10 11:04:31;;;;;;;24.23;14.40;;;10.00;99.90;;;;;;5067907;28;20430;-40
2022/01/10 11:06:58;;;;;;;19.87;13.00;;;9.80;99.90;;;;;;5054364;28;20444;-40
2022/01/10 11:09:25;;;;;;;25.13;15.03;;;9.70;99.90;;;;;;5067955;28;20470;-41
2022/01/10 11:11:51;;;;;;;24.43;13.80;;;9.50;99.90;;;;;;5064534;28;20416;-42
2022/01/10 11:14:18;;;;;;;21.57;14.27;;;9.20;99.90;;;;;;5072632;28;20458;-41
2022/01/10 11:16:46;;;;;;;26.37;13.57;;;9.60;99.90;;;;;;5085020;28;20672;-41
2022/01/10 11:19:12;;;;;;;21.70;13.40;;;9.30;99.90;;;;;;5088894;28;21173;-42
2022/01/10 11:21:40;;;;;;;21.77;13.47;;;9.00;99.90;;;;;;5069549;28;20419;-45
2022/01/10 11:24:06;;;;;;;28.00;14.43;;;8.70;99.90;;;;;;5063380;28;20430;-44
2022/01/10 11:26:40;;;;;;;26.00;14.50;;;8.50;99.90;;;;;;5068478;28;20419;-43
2022/01/10 11:29:09;;;;;;;20.53;14.87;;;8.20;99.90;;;;;;5068402;28;20481;-42
2022/01/10 11:31:36;;;;;;;24.90;14.10;;;8.10;99.90;;;;;;5067419;28;20435;-43
2022/01/10 11:34:03;;;;;;;22.20;14.37;;;8.20;99.90;;;;;;5067428;28;20550;-41
2022/01/10 11:36:29;;;;;;;27.27;13.57;;;8.20;99.90;;;;;;5062823;28;20528;-43
2022/01/10 11:39:00;;;;;;;26.03;14.10;;;7.90;99.90;;;;;;5062206;28;20412;-42
2022/01/10 11:41:28;;;;;;;16.47;11.13;;;8.10;99.90;;;;;;5066164;28;20408;-41
2022/01/10 11:43:56;;;;;;;19.67;12.20;;;8.50;99.90;;;;;;5067026;28;20835;-42
2022/01/10 11:46:45;;;;;;;23.73;14.00;;;8.50;99.90;;;;;;5067998;28;20416;-48
2022/01/10 11:49:20;;;;;;;22.50;12.53;;;8.60;99.90;;;;;;5068212;28;20430;-44
2022/01/10 11:51:51;;;;;;;19.97;11.40;;;9.00;99.90;;;;;;5059564;28;20455;-41
2022/01/10 11:54:23;;;;;;;17.67;11.43;;;9.70;99.90;;;;;;5066664;28;20425;-42
2022/01/10 11:56:50;;;;;;;22.00;11.87;;;9.90;99.90;;;;;;5066531;28;20489;-41
2022/01/10 11:59:21;;;;;;;17.20;10.50;;;10.10;99.90;;;;;;5067963;28;20484;-45
2022/01/10 12:01:51;;;;;;;16.90;11.27;;;11.20;99.90;;;;;;5067092;28;20419;-43
2022/01/10 12:04:18;;;;;;;17.80;9.63;;;13.10;99.90;;;;;;5067801;28;20431;-40
2022/01/10 12:06:45;;;;;;;15.10;8.73;;;14.60;96.80;;;;;;5061924;28;20439;-43
2022/01/10 12:09:11;;;;;;;14.30;8.70;;;16.80;92.40;;;;;;5063386;28;20499;-42
2022/01/10 12:11:39;;;;;;;18.50;8.80;;;17.40;89.10;;;;;;5066896;28;20434;-43
2022/01/10 12:14:07;;;;;;;14.73;8.77;;;18.50;83.40;;;;;;5075358;28;20516;-42
2022/01/10 12:16:33;;;;;;;16.27;8.37;;;19.30;78.20;;;;;;5083616;28;20426;-42
2022/01/10 12:18:59;;;;;;;15.00;8.40;;;20.30;74.40;;;;;;5086537;28;20426;-44
2022/01/10 12:21:26;;;;;;;15.27;9.80;;;21.60;69.10;;;;;;5064257;28;20952;-43
2022/01/10 12:23:52;;;;;;;14.63;8.20;;;22.20;63.30;;;;;;5061984;28;20422;-44
2022/01/10 12:26:23;;;;;;;16.90;8.93;;;22.10;60.70;;;;;;5067914;28;20419;-44
2022/01/10 12:28:54;;;;;;;16.33;9.10;;;22.30;59.00;;;;;;5067473;28;20481;-42
2022/01/10 12:31:22;;;;;;;13.10;7.33;;;21.10;59.00;;;;;;5066966;28;20419;-41
2022/01/10 12:33:50;;;;;;;12.27;8.47;;;18.80;63.60;;;;;;5067404;28;20475;-43
2022/01/10 12:36:17;;;;;;;13.20;9.43;;;16.10;73.00;;;;;;5063261;28;20436;-42
2022/01/10 12:38:43;;;;;;;15.57;9.10;;;13.70;83.50;;;;;;5058904;28;20415;-43
2022/01/10 12:41:10;;;;;;;13.40;8.53;;;12.60;92.20;;;;;;5066717;28;20431;-42
2022/01/10 12:43:36;;;;;;;16.43;9.60;;;11.80;95.90;;;;;;5066445;28;20933;-43
2022/01/10 12:46:02;;;;;;;17.43;9.73;;;10.90;99.40;;;;;;5066663;28;20653;-41
2022/01/10 12:48:28;;;;;;;13.10;9.33;;;10.30;99.90;;;;;;5055301;28;20451;-44